Μαλάτεια, Turkey

11:07 PM +03 on Ιανουάριος 20, 2017 (GMT +0300)
Erhac Air Base | | Change Station

Elev 2785 ft 38.43 °N, 38.08 °E | Updated 17 minutes ago

Αίθριος
Αίθριος
25 ° F
Feels Like 20 ° F
N
4
Ανεμος Μεταβλητός Ανεμος from Νότιος

Σήμερα
High -- | Low -- ° F
--% Chance of Precip.
Yesterday
High -- | Low -- ° F
Precip. -- in
Ατμοσφαιρική Πίεση 30.15 in
Ορατότητα -9999.0 Μίλια
Σύννεφα
Δείκτης Ψυχρότητας 20 ° F
Σημείο Δρόσου 21 ° F
Υγρασία 86%
Rainfall 0.00 in
Snow Depth Not available.
7:41 AM 5:36 PM
Τελευταίο τέταρτο, 41% visible
METAR LTAT 201950Z 17003KT CAVOK M04/M06 Q1021 NOSIG RMK RWY03 20004KT
Ατμοσφαιρική Πίεση 30.15 in
Ορατότητα -9999.0 Μίλια
Σύννεφα
Δείκτης Ψυχρότητας 20 ° F
Σημείο Δρόσου 21 ° F
Υγρασία 86%
Rainfall 0.00 in
Snow Depth Not available.
7:41 AM 5:36 PM
Τελευταίο τέταρτο, 41% visible
METAR LTAT 201950Z 17003KT CAVOK M04/M06 Q1021 NOSIG RMK RWY03 20004KT

Get Your Daily Forecast Email!

Thanks for signing up!

Be on the lookout for a verification email in your inbox.

You'll start receiving the daily forecast at 8 AM.

×

10-Day Weather Forecast

×

Almanac

Αστρονομία

Jan. 20, 2017 Rise Set
Actual Time
Civil Twilight
Nautical Twilight
Astronomical Twilight
Moon
Length Of Visible Light
Διάρκεια ημέρας
Tomorrow will be .
, % of the Moon is Illuminated

Today's Extremes

Country Highs Country Lows

Community

WunderPhotos

Upload Photos

1,962,540 photos uploaded!

WunderBlog® & News

Nearby

Air Quality

  Air Quality AQ Index Pollutant
Not available.

Snow Depth

Station Depth Elevation

Earthquake Activity

City Distance Mag. Time & Date
Minimum magnitude displayed is 2.5.

Coastal Water Temperatures

Τοποθεσία Θερμοκρασία

Stations

Nearby Weather Stations

Station Location Temp Δείκτης Ψυχρότητας Σημείο Δρόσου Υγρασία Ανεμος Precip. Elev Ενημερώθηκε Type